Time,TemperatureF,DewpointF,PressureIn,WindDirection,WindDirectionDegrees,WindSpeedMPH,WindSpeedGustMPH,Humidity,HourlyPrecipIn,Conditions,Clouds,dailyrainin,SoftwareType,DateUTC
2013-02-04 00:03:00,50.2,33.2,32.02,West,270,8.1,8.1,52,0.00,CLR,SKC,0.00,WeatherDisplay:10.37,2013-02-04 07:03:00,
2013-02-04 00:08:00,50.0,33.1,32.02,West,270,2.3,2.3,52,0.00,CLR,SKC,0.00,WeatherDisplay:10.37,2013-02-04 07:08:00,
2013-02-04 00:13:00,49.8,32.9,32.02,NW,315,2.3,2.3,52,0.00,CLR,SKC,0.00,WeatherDisplay:10.37,2013-02-04 07:13:00,
2013-02-04 00:18:00,49.8,33.4,32.02,West,270,4.6,4.6,53,0.00,CLR,SKC,0.00,WeatherDisplay:10.37,2013-02-04 07:18:00,
2013-02-04 00:23:00,49.6,32.7,32.02,West,270,0.0,0.0,52,0.00,CLR,SKC,0.00,WeatherDisplay:10.37,2013-02-04 07:23:00,
2013-02-04 00:28:00,49.3,32.9,32.02,West,270,1.3,0.0,53,0.00,CLR,SKC,0.00,WeatherDisplay:10.37,2013-02-04 07:28:00,
2013-02-04 00:33:00,48.9,33.0,32.02,West,270,0.0,0.0,54,0.00,CLR,SKC,0.00,WeatherDisplay:10.37,2013-02-04 07:33:00,
2013-02-04 00:38:00,48.7,33.3,32.02,West,270,0.0,0.0,55,0.00,CLR,SKC,0.00,WeatherDisplay:10.37,2013-02-04 07:38:00,
2013-02-04 00:43:00,48.7,33.7,31.89,West,270,0.0,0.0,56,0.00,CLR,SKC,0.00,WeatherDisplay:10.37,2013-02-04 07:43:00,
2013-02-04 00:48:00,48.6,34.4,32.02,West,270,0.0,0.0,58,0.00,CLR,SKC,0.00,WeatherDisplay:10.37,2013-02-04 07:48:00,
2013-02-04 00:53:00,48.6,34.4,32.02,West,270,0.0,0.0,58,0.00,CLR,SKC,0.00,WeatherDisplay:10.37,2013-02-04 07:53:00,
2013-02-04 00:58:00,48.4,34.3,31.89,West,270,0.0,0.0,58,0.00,CLR,SKC,0.00,WeatherDisplay:10.37,2013-02-04 07:58:00,
2013-02-04 01:03:00,48.0,33.9,32.02,West,270,0.0,0.0,58,0.00,CLR,SKC,0.00,WeatherDisplay:10.37,2013-02-04 08:03:00,
2013-02-04 01:08:00,47.8,34.2,32.02,West,270,0.0,0.0,59,0.00,CLR,SKC,0.00,WeatherDisplay:10.37,2013-02-04 08:08:00,
2013-02-04 01:13:00,47.7,34.0,31.89,West,270,0.0,0.0,59,0.00,CLR,SKC,0.00,WeatherDisplay:10.37,2013-02-04 08:13:00,
2013-02-04 01:18:00,47.5,33.9,31.89,West,270,0.0,0.0,59,0.00,CLR,SKC,0.00,WeatherDisplay:10.37,2013-02-04 08:18:00,
2013-02-04 01:23:00,47.1,33.5,32.02,West,270,0.0,0.0,59,0.00,CLR,SKC,0.00,WeatherDisplay:10.37,2013-02-04 08:23:00,
2013-02-04 01:28:00,47.1,33.9,32.02,West,270,0.0,0.0,60,0.00,CLR,SKC,0.00,WeatherDisplay:10.37,2013-02-04 08:28:00,
2013-02-04 01:33:00,46.9,34.2,31.89,West,270,0.0,0.0,61,0.00,CLR,SKC,0.00,WeatherDisplay:10.37,2013-02-04 08:33:00,
2013-02-04 01:38:00,46.8,34.0,32.02,West,270,0.0,0.0,61,0.00,CLR,SKC,0.00,WeatherDisplay:10.37,2013-02-04 08:38:00,
2013-02-04 01:43:00,46.8,33.6,32.02,West,270,0.0,0.0,60,0.00,CLR,SKC,0.00,WeatherDisplay:10.37,2013-02-04 08:43:00,
2013-02-04 01:48:00,46.6,33.8,32.02,West,270,0.0,0.0,61,0.00,CLR,SKC,0.00,WeatherDisplay:10.37,2013-02-04 08:48:00,
2013-02-04 01:53:00,46.6,33.8,31.89,West,270,0.0,0.0,61,0.00,CLR,SKC,0.00,WeatherDisplay:10.37,2013-02-04 08:53:00,
2013-02-04 01:58:00,46.2,33.9,31.89,West,270,0.0,0.0,62,0.00,CLR,SKC,0.00,WeatherDisplay:10.37,2013-02-04 08:58:00,
2013-02-04 02:03:00,46.0,33.7,32.02,West,270,0.0,0.0,62,0.00,CLR,SKC,0.00,WeatherDisplay:10.37,2013-02-04 09:03:00,
2013-02-04 02:08:00,46.0,34.1,31.89,West,270,0.0,0.0,63,0.00,CLR,SKC,0.00,WeatherDisplay:10.37,2013-02-04 09:08:00,
2013-02-04 02:13:00,45.7,33.8,31.89,West,270,0.0,0.0,63,0.00,CLR,SKC,0.00,WeatherDisplay:10.37,2013-02-04 09:13:00,
2013-02-04 02:18:00,45.9,34.0,31.89,West,270,4.6,4.6,63,0.00,CLR,SKC,0.00,WeatherDisplay:10.37,2013-02-04 09:18:00,
2013-02-04 02:23:00,46.0,34.5,32.01,West,270,0.0,0.0,64,0.00,CLR,SKC,0.00,WeatherDisplay:10.37,2013-02-04 09:23:00,
2013-02-04 02:28:00,46.0,34.1,32.01,West,270,0.0,0.0,63,0.00,CLR,SKC,0.00,WeatherDisplay:10.37,2013-02-04 09:28:00,
2013-02-04 02:33:00,46.2,34.3,31.89,West,270,1.3,1.3,63,0.00,CLR,SKC,0.00,WeatherDisplay:10.37,2013-02-04 09:33:00,
2013-02-04 02:38:00,46.2,34.3,31.89,West,270,0.0,0.0,63,0.00,CLR,SKC,0.00,WeatherDisplay:10.37,2013-02-04 09:38:00,
2013-02-04 02:43:00,46.2,34.3,31.89,West,270,0.0,0.0,63,0.00,CLR,SKC,0.00,WeatherDisplay:10.37,2013-02-04 09:43:00,
2013-02-04 02:48:00,46.2,33.9,32.01,West,270,0.0,0.0,62,0.00,CLR,SKC,0.00,WeatherDisplay:10.37,2013-02-04 09:48:00,
2013-02-04 02:53:00,46.0,34.1,31.89,West,270,0.0,0.0,63,0.00,CLR,SKC,0.00,WeatherDisplay:10.37,2013-02-04 09:53:00,
2013-02-04 02:58:00,45.7,33.8,31.89,West,270,0.0,0.0,63,0.00,CLR,SKC,0.00,WeatherDisplay:10.37,2013-02-04 09:58:00,
2013-02-04 03:03:00,45.3,33.5,32.01,West,270,0.0,0.0,63,0.00,CLR,SKC,0.00,WeatherDisplay:10.37,2013-02-04 10:03:00,
2013-02-04 03:08:00,45.1,33.7,32.01,West,270,0.0,0.0,64,0.00,CLR,SKC,0.00,WeatherDisplay:10.37,2013-02-04 10:08:00,
2013-02-04 03:13:00,45.0,33.5,32.02,West,270,0.0,0.0,64,0.00,CLR,SKC,0.00,WeatherDisplay:10.37,2013-02-04 10:13:00,
2013-02-04 03:18:00,44.8,33.7,32.02,West,270,0.0,0.0,65,0.00,CLR,SKC,0.00,WeatherDisplay:10.37,2013-02-04 10:18:00,
2013-02-04 03:23:00,44.8,33.7,32.01,West,270,0.0,0.0,65,0.00,CLR,SKC,0.00,WeatherDisplay:10.37,2013-02-04 10:23:00,
2013-02-04 03:28:00,44.6,33.6,32.01,West,270,0.0,0.0,65,0.00,CLR,SKC,0.00,WeatherDisplay:10.37,2013-02-04 10:28:00,
2013-02-04 03:33:00,44.4,33.4,31.89,West,270,0.0,0.0,65,0.00,CLR,SKC,0.00,WeatherDisplay:10.37,2013-02-04 10:33:00,
2013-02-04 03:38:00,44.4,33.4,31.89,West,270,0.0,0.0,65,0.00,CLR,SKC,0.00,WeatherDisplay:10.37,2013-02-04 10:38:00,
2013-02-04 03:43:00,44.4,33.4,32.02,West,270,0.0,0.0,65,0.00,CLR,SKC,0.00,WeatherDisplay:10.37,2013-02-04 10:43:00,
2013-02-04 03:48:00,44.4,33.4,32.02,West,270,0.0,0.0,65,0.00,CLR,SKC,0.00,WeatherDisplay:10.37,2013-02-04 10:48:00,
2013-02-04 03:53:00,44.2,33.2,32.01,West,270,0.0,0.0,65,0.00,CLR,SKC,0.00,WeatherDisplay:10.37,2013-02-04 10:53:00,
2013-02-04 03:58:00,44.4,33.4,31.89,West,270,0.0,0.0,65,0.00,CLR,SKC,0.00,WeatherDisplay:10.37,2013-02-04 10:58:00,
2013-02-04 04:03:00,44.4,33.4,32.01,West,270,0.0,0.0,65,0.00,CLR,SKC,0.00,WeatherDisplay:10.37,2013-02-04 11:03:00,
2013-02-04 04:08:00,44.4,33.8,32.01,West,270,0.0,0.0,66,0.00,CLR,SKC,0.00,WeatherDisplay:10.37,2013-02-04 11:08:00,
2013-02-04 04:13:00,44.4,33.8,32.01,West,270,0.0,0.0,66,0.00,CLR,SKC,0.00,WeatherDisplay:10.37,2013-02-04 11:13:00,
2013-02-04 04:18:00,44.4,33.4,32.01,West,270,0.0,0.0,65,0.00,CLR,SKC,0.00,WeatherDisplay:10.37,2013-02-04 11:18:00,
2013-02-04 04:23:00,44.2,33.6,32.01,West,270,0.0,0.0,66,0.00,CLR,SKC,0.00,WeatherDisplay:10.37,2013-02-04 11:23:00,
2013-02-04 04:28:00,44.2,33.6,32.01,West,270,0.0,0.0,66,0.00,CLR,SKC,0.00,WeatherDisplay:10.37,2013-02-04 11:28:00,
2013-02-04 04:33:00,43.9,33.3,32.01,West,270,0.0,0.0,66,0.00,CLR,SKC,0.00,WeatherDisplay:10.37,2013-02-04 11:33:00,
2013-02-04 04:38:00,43.9,33.6,32.01,West,270,0.0,0.0,67,0.00,CLR,SKC,0.00,WeatherDisplay:10.37,2013-02-04 11:38:00,
2013-02-04 04:43:00,43.7,33.5,32.00,West,270,0.0,0.0,67,0.00,CLR,SKC,0.00,WeatherDisplay:10.37,2013-02-04 11:43:00,
2013-02-04 04:48:00,43.5,33.3,32.00,West,270,0.0,0.0,67,0.00,CLR,SKC,0.00,WeatherDisplay:10.37,2013-02-04 11:48:00,
2013-02-04 04:53:00,43.5,33.3,32.00,West,270,0.0,0.0,67,0.00,CLR,SKC,0.00,WeatherDisplay:10.37,2013-02-04 11:53:00,
2013-02-04 04:58:00,43.5,33.3,31.89,West,270,0.0,0.0,67,0.00,CLR,SKC,0.00,WeatherDisplay:10.37,2013-02-04 11:58:00,
2013-02-04 05:03:00,43.2,32.9,32.00,West,270,0.0,0.0,67,0.00,CLR,SKC,0.00,WeatherDisplay:10.37,2013-02-04 12:03:00,
2013-02-04 05:08:00,43.0,32.4,32.00,West,270,0.0,0.0,66,0.00,CLR,SKC,0.00,WeatherDisplay:10.37,2013-02-04 12:08:00,
2013-02-04 05:13:00,42.6,32.0,32.00,West,270,0.0,0.0,66,0.00,CLR,SKC,0.00,WeatherDisplay:10.37,2013-02-04 12:13:00,
2013-02-04 05:18:00,42.6,32.0,32.00,West,270,0.0,0.0,66,0.00,CLR,SKC,0.00,WeatherDisplay:10.37,2013-02-04 12:18:00,
2013-02-04 05:23:00,42.4,31.9,32.00,West,270,0.0,0.0,66,0.00,CLR,SKC,0.00,WeatherDisplay:10.37,2013-02-04 12:23:00,
2013-02-04 05:28:00,42.1,32.3,32.00,WNW,292,0.0,0.0,68,0.00,CLR,SKC,0.00,WeatherDisplay:10.37,2013-02-04 12:28:00,
2013-02-04 05:33:00,41.9,32.5,32.01,WNW,292,0.0,0.0,69,0.00,CLR,SKC,0.00,WeatherDisplay:10.37,2013-02-04 12:33:00,
2013-02-04 05:38:00,41.7,32.7,32.00,WNW,292,5.8,5.8,70,0.00,CLR,SKC,0.00,WeatherDisplay:10.37,2013-02-04 12:38:00,
2013-02-04 05:43:00,41.5,32.5,32.00,WNW,292,0.0,0.0,70,0.00,CLR,SKC,0.00,WeatherDisplay:10.37,2013-02-04 12:43:00,
2013-02-04 05:48:00,41.4,32.3,32.00,WNW,292,0.0,0.0,70,0.00,CLR,SKC,0.00,WeatherDisplay:10.37,2013-02-04 12:48:00,
2013-02-04 05:53:00,41.2,32.5,32.01,WNW,292,0.0,0.0,71,0.00,CLR,SKC,0.00,WeatherDisplay:10.37,2013-02-04 12:53:00,
2013-02-04 05:58:00,41.0,32.3,31.89,NW,315,2.3,2.3,71,0.00,CLR,SKC,0.00,WeatherDisplay:10.37,2013-02-04 12:58:00,
2013-02-04 06:03:00,40.8,32.1,32.01,NW,315,0.0,0.0,71,0.00,CLR,SKC,0.00,WeatherDisplay:10.37,2013-02-04 13:03:00,
2013-02-04 06:08:00,40.5,31.8,32.00,NW,315,0.0,0.0,71,0.00,CLR,SKC,0.00,WeatherDisplay:10.37,2013-02-04 13:08:00,
2013-02-04 06:13:00,40.1,31.8,32.00,NW,315,1.2,1.2,72,0.00,CLR,SKC,0.00,WeatherDisplay:10.37,2013-02-04 13:13:00,
2013-02-04 06:18:00,39.9,31.6,32.01,NW,315,3.5,3.5,72,0.00,CLR,SKC,0.00,WeatherDisplay:10.37,2013-02-04 13:18:00,
2013-02-04 06:23:00,39.7,31.4,31.89,NW,315,1.2,1.2,72,0.00,CLR,SKC,0.00,WeatherDisplay:10.37,2013-02-04 13:23:00,
2013-02-04 06:28:00,39.6,31.6,32.01,NW,315,5.8,5.8,73,0.00,CLR,SKC,0.00,WeatherDisplay:10.37,2013-02-04 13:28:00,
2013-02-04 06:33:00,39.4,31.8,32.00,NW,315,7.4,7.4,74,0.00,CLR,SKC,0.00,WeatherDisplay:10.37,2013-02-04 13:33:00,
2013-02-04 06:38:00,39.4,31.8,32.01,NW,315,6.9,7.1,74,0.00,CLR,SKC,0.00,WeatherDisplay:10.37,2013-02-04 13:38:00,
2013-02-04 06:43:00,39.4,31.8,32.01,WNW,292,4.6,4.6,74,0.00,CLR,SKC,0.00,WeatherDisplay:10.37,2013-02-04 13:43:00,
2013-02-04 06:48:00,39.4,31.8,32.01,WNW,292,8.1,8.1,74,0.00,CLR,SKC,0.00,WeatherDisplay:10.37,2013-02-04 13:48:00,
2013-02-04 06:53:00,39.4,31.8,32.01,WNW,292,5.8,5.8,74,0.00,CLR,SKC,0.00,WeatherDisplay:10.37,2013-02-04 13:53:00,
2013-02-04 06:58:00,39.4,31.8,32.01,WNW,292,3.5,3.5,74,0.00,CLR,SKC,0.00,WeatherDisplay:10.37,2013-02-04 13:58:00,
2013-02-04 07:03:00,39.4,31.8,32.02,WNW,292,3.5,3.5,74,0.00,CLR,SKC,0.00,WeatherDisplay:10.37,2013-02-04 14:03:00,
2013-02-04 07:08:00,39.4,31.8,32.02,WNW,292,6.9,6.9,74,0.00,CLR,SKC,0.00,WeatherDisplay:10.37,2013-02-04 14:08:00,
2013-02-04 07:13:00,39.4,31.8,31.89,WNW,292,6.9,6.9,74,0.00,CLR,SKC,0.00,WeatherDisplay:10.37,2013-02-04 14:13:00,
2013-02-04 07:18:00,39.4,31.8,32.02,WNW,292,5.8,5.8,74,0.00,CLR,SKC,0.00,WeatherDisplay:10.37,2013-02-04 14:18:00,
2013-02-04 07:23:00,39.4,31.8,32.02,WNW,292,5.8,5.8,74,0.00,CLR,SKC,0.00,WeatherDisplay:10.37,2013-02-04 14:23:00,
2013-02-04 07:28:00,39.4,31.8,32.03,WNW,292,4.6,4.6,74,0.00,CLR,SKC,0.00,WeatherDisplay:10.37,2013-02-04 14:28:00,
2013-02-04 07:33:00,39.4,31.8,31.89,WNW,292,4.6,4.6,74,0.00,CLR,SKC,0.00,WeatherDisplay:10.37,2013-02-04 14:33:00,
2013-02-04 07:38:00,39.4,31.8,32.03,WNW,292,0.0,0.7,74,0.00,CLR,SKC,0.00,WeatherDisplay:10.37,2013-02-04 14:38:00,
2013-02-04 07:43:00,39.6,32.0,32.03,WNW,292,0.0,0.0,74,0.00,CLR,SKC,0.00,WeatherDisplay:10.37,2013-02-04 14:43:00,
2013-02-04 07:48:00,39.7,32.1,32.03,NNW,338,8.1,8.1,74,0.00,CLR,SKC,0.00,WeatherDisplay:10.37,2013-02-04 14:48:00,
2013-02-04 07:53:00,39.7,32.1,31.89,NW,315,9.2,9.2,74,0.00,CLR,SKC,0.00,WeatherDisplay:10.37,2013-02-04 14:53:00,
2013-02-04 07:58:00,39.7,32.1,32.03,NW,315,3.5,3.5,74,0.00,CLR,SKC,0.00,WeatherDisplay:10.37,2013-02-04 14:58:00,
2013-02-04 08:03:00,39.9,32.3,31.89,NW,315,6.5,6.5,74,0.00,CLR,SKC,0.00,WeatherDisplay:10.37,2013-02-04 15:03:00,
2013-02-04 08:08:00,39.9,32.3,31.89,NW,315,6.9,6.9,74,0.00,CLR,SKC,0.00,WeatherDisplay:10.37,2013-02-04 15:08:00,
2013-02-04 08:13:00,39.9,32.3,31.89,NW,315,6.9,6.9,74,0.00,CLR,SKC,0.00,WeatherDisplay:10.37,2013-02-04 15:13:00,
2013-02-04 08:18:00,40.1,32.1,31.89,NNW,338,8.1,8.1,73,0.00,CLR,SKC,0.00,WeatherDisplay:10.37,2013-02-04 15:18:00,
2013-02-04 08:23:00,40.3,32.3,32.04,NW,315,4.6,4.6,73,0.00,CLR,SKC,0.00,WeatherDisplay:10.37,2013-02-04 15:23:00,
2013-02-04 08:28:00,40.6,32.7,32.04,NW,315,9.4,9.4,73,0.00,CLR,SKC,0.00,WeatherDisplay:10.37,2013-02-04 15:28:00,
2013-02-04 08:33:00,40.8,32.8,32.04,NW,315,6.9,6.9,73,0.00,CLR,SKC,0.00,WeatherDisplay:10.37,2013-02-04 15:33:00,
2013-02-04 08:38:00,41.2,33.2,32.05,NW,315,8.1,8.1,73,0.00,CLR,SKC,0.00,WeatherDisplay:10.37,2013-02-04 15:38:00,
2013-02-04 08:43:00,41.7,33.4,32.04,NNW,338,9.2,9.2,72,0.00,CLR,SKC,0.00,WeatherDisplay:10.37,2013-02-04 15:43:00,
2013-02-04 08:48:00,42.4,34.0,31.89,NW,315,3.5,3.5,72,0.00,CLR,SKC,0.00,WeatherDisplay:10.37,2013-02-04 15:48:00,
2013-02-04 08:53:00,43.0,34.2,31.89,NW,315,8.1,8.1,71,0.00,CLR,SKC,0.00,WeatherDisplay:10.37,2013-02-04 15:53:00,
2013-02-04 08:58:00,43.7,34.6,32.04,WNW,292,9.2,9.2,70,0.00,CLR,SKC,0.00,WeatherDisplay:10.37,2013-02-04 15:58:00,
2013-02-04 09:03:00,44.4,34.9,32.05,WNW,292,9.2,9.2,69,0.00,CLR,SKC,0.00,WeatherDisplay:10.37,2013-02-04 16:03:00,
2013-02-04 09:08:00,45.1,35.2,32.05,WNW,292,9.2,9.2,68,0.00,CLR,SKC,0.00,WeatherDisplay:10.37,2013-02-04 16:08:00,
2013-02-04 09:13:00,45.7,35.3,32.05,NW,315,11.6,11.6,67,0.00,CLR,SKC,0.00,WeatherDisplay:10.37,2013-02-04 16:13:00,
2013-02-04 09:18:00,46.0,35.3,32.05,NW,315,11.5,11.5,66,0.00,CLR,SKC,0.00,WeatherDisplay:10.37,2013-02-04 16:18:00,
2013-02-04 09:23:00,46.6,35.4,32.05,WNW,292,9.2,9.2,65,0.00,CLR,SKC,0.00,WeatherDisplay:10.37,2013-02-04 16:23:00,
2013-02-04 09:28:00,47.1,36.0,31.89,NW,315,10.4,10.4,65,0.00,CLR,SKC,0.00,WeatherDisplay:10.37,2013-02-04 16:28:00,
2013-02-04 09:33:00,47.7,36.1,32.05,NW,315,6.9,6.9,64,0.00,CLR,SKC,0.00,WeatherDisplay:10.37,2013-02-04 16:33:00,
2013-02-04 09:38:00,48.4,36.4,31.89,WNW,292,6.9,6.9,63,0.00,CLR,SKC,0.00,WeatherDisplay:10.37,2013-02-04 16:38:00,
2013-02-04 09:43:00,49.1,36.6,32.05,NW,315,2.3,2.3,62,0.00,CLR,SKC,0.00,WeatherDisplay:10.37,2013-02-04 16:43:00,
2013-02-04 09:48:00,49.6,36.7,32.05,NW,315,2.3,2.3,61,0.00,CLR,SKC,0.00,WeatherDisplay:10.37,2013-02-04 16:48:00,
2013-02-04 09:53:00,50.5,37.2,31.89,WNW,292,0.0,0.0,60,0.00,CLR,SKC,0.00,WeatherDisplay:10.37,2013-02-04 16:53:00,
2013-02-04 09:58:00,51.4,37.6,32.05,NNW,338,4.6,4.6,59,0.00,CLR,SKC,0.00,WeatherDisplay:10.37,2013-02-04 16:58:00,
2013-02-04 10:03:00,52.0,37.7,32.05,NW,315,2.3,2.3,58,0.00,CLR,SKC,0.00,WeatherDisplay:10.37,2013-02-04 17:03:00,
2013-02-04 10:08:00,53.2,38.4,31.89,WNW,292,2.3,2.3,57,0.00,CLR,SKC,0.00,WeatherDisplay:10.37,2013-02-04 17:08:00,
2013-02-04 10:13:00,54.0,38.1,32.05,North,0,2.3,2.3,55,0.00,CLR,SKC,0.00,WeatherDisplay:10.37,2013-02-04 17:13:00,
2013-02-04 10:18:00,54.9,38.5,32.05,NW,315,6.9,6.9,54,0.00,CLR,SKC,0.00,WeatherDisplay:10.37,2013-02-04 17:18:00,
2013-02-04 10:23:00,55.9,38.6,32.05,WNW,292,10.4,10.4,52,0.00,CLR,SKC,0.00,WeatherDisplay:10.37,2013-02-04 17:23:00,
2013-02-04 10:28:00,56.5,38.6,31.89,WNW,292,10.4,10.4,51,0.00,CLR,SKC,0.00,WeatherDisplay:10.37,2013-02-04 17:28:00,
2013-02-04 10:33:00,56.8,38.4,32.05,WNW,292,5.8,5.8,50,0.00,CLR,SKC,0.00,WeatherDisplay:10.37,2013-02-04 17:33:00,
2013-02-04 10:38:00,57.6,38.5,32.05,NW,315,4.6,4.6,49,0.00,CLR,SKC,0.00,WeatherDisplay:10.37,2013-02-04 17:38:00,
2013-02-04 10:43:00,58.1,38.5,32.05,NW,315,6.9,6.9,48,0.00,CLR,SKC,0.00,WeatherDisplay:10.37,2013-02-04 17:43:00,
2013-02-04 10:48:00,58.6,38.5,31.89,NW,315,8.1,8.1,47,0.00,CLR,SKC,0.00,WeatherDisplay:10.37,2013-02-04 17:48:00,
2013-02-04 10:53:00,58.8,37.5,32.05,NW,315,8.1,8.1,45,0.00,CLR,SKC,0.00,WeatherDisplay:10.37,2013-02-04 17:53:00,
2013-02-04 10:58:00,59.5,38.2,32.05,NW,315,8.1,8.1,45,0.00,CLR,SKC,0.00,WeatherDisplay:10.37,2013-02-04 17:58:00,
2013-02-04 11:03:00,60.1,38.1,32.04,NW,315,0.0,0.0,44,0.00,CLR,SKC,0.00,WeatherDisplay:10.37,2013-02-04 18:03:00,
2013-02-04 11:08:00,60.6,38.0,32.04,WNW,292,6.9,6.9,43,0.00,CLR,SKC,0.00,WeatherDisplay:10.37,2013-02-04 18:08:00,
2013-02-04 11:13:00,61.3,37.4,32.04,West,270,8.1,8.1,41,0.00,CLR,SKC,0.00,WeatherDisplay:10.37,2013-02-04 18:13:00,
2013-02-04 11:18:00,61.5,37.6,31.89,WNW,292,5.8,5.8,41,0.00,CLR,SKC,0.00,WeatherDisplay:10.37,2013-02-04 18:18:00,
2013-02-04 11:23:00,61.9,37.9,32.04,WNW,292,6.9,6.9,41,0.00,CLR,SKC,0.00,WeatherDisplay:10.37,2013-02-04 18:23:00,
2013-02-04 11:28:00,62.8,38.7,31.89,NW,315,6.9,6.9,41,0.00,CLR,SKC,0.00,WeatherDisplay:10.37,2013-02-04 18:28:00,
2013-02-04 11:33:00,63.5,38.7,31.89,NNE,22,2.3,0.0,40,0.00,CLR,SKC,0.00,WeatherDisplay:10.37,2013-02-04 18:33:00,
2013-02-04 11:38:00,64.2,39.4,32.03,NW,315,0.0,0.2,40,0.00,CLR,SKC,0.00,WeatherDisplay:10.37,2013-02-04 18:38:00,
2013-02-04 11:43:00,65.1,39.5,32.03,WNW,292,0.0,0.0,39,0.00,CLR,SKC,0.00,WeatherDisplay:10.37,2013-02-04 18:43:00,
2013-02-04 11:48:00,66.0,40.3,32.03,WNW,292,0.0,0.0,39,0.00,CLR,SKC,0.00,WeatherDisplay:10.37,2013-02-04 18:48:00,
2013-02-04 11:53:00,67.1,39.9,32.03,NNW,338,8.1,8.1,37,0.00,CLR,SKC,0.00,WeatherDisplay:10.37,2013-02-04 18:53:00,
2013-02-04 11:58:00,67.1,39.2,31.89,West,270,4.6,0.0,36,0.00,CLR,SKC,0.00,WeatherDisplay:10.37,2013-02-04 18:58:00,
2013-02-04 12:03:00,67.3,40.1,32.02,West,270,0.0,0.0,37,0.00,CLR,SKC,0.00,WeatherDisplay:10.37,2013-02-04 19:03:00,
2013-02-04 12:08:00,67.8,39.9,32.02,NW,315,6.9,6.9,36,0.00,CLR,SKC,0.00,WeatherDisplay:10.37,2013-02-04 19:08:00,
2013-02-04 12:13:00,68.2,39.5,32.01,WNW,292,2.3,0.0,35,0.00,CLR,SKC,0.00,WeatherDisplay:10.37,2013-02-04 19:13:00,
2013-02-04 12:18:00,67.6,38.3,32.01,North,0,9.2,9.2,34,0.00,CLR,SKC,0.00,WeatherDisplay:10.37,2013-02-04 19:18:00,
2013-02-04 12:23:00,67.1,38.5,32.01,NNE,22,5.8,5.8,35,0.00,CLR,SKC,0.00,WeatherDisplay:10.37,2013-02-04 19:23:00,
2013-02-04 12:28:00,67.1,38.5,32.01,NNE,22,9.2,9.2,35,0.00,CLR,SKC,0.00,WeatherDisplay:10.37,2013-02-04 19:28:00,
2013-02-04 12:33:00,67.3,37.9,32.01,West,270,6.9,6.9,34,0.00,CLR,SKC,0.00,WeatherDisplay:10.37,2013-02-04 19:33:00,
2013-02-04 12:38:00,67.8,38.4,32.00,West,270,8.1,8.1,34,0.00,CLR,SKC,0.00,WeatherDisplay:10.37,2013-02-04 19:38:00,
2013-02-04 12:43:00,67.8,39.2,32.00,WNW,292,6.9,6.9,35,0.00,CLR,SKC,0.00,WeatherDisplay:10.37,2013-02-04 19:43:00,
2013-02-04 12:48:00,68.2,38.7,31.99,WNW,292,4.6,4.6,34,0.00,CLR,SKC,0.00,WeatherDisplay:10.37,2013-02-04 19:48:00,
2013-02-04 12:53:00,68.7,39.2,31.99,WNW,292,10.4,10.4,34,0.00,CLR,SKC,0.00,WeatherDisplay:10.37,2013-02-04 19:53:00,
2013-02-04 12:58:00,69.4,40.6,31.99,West,270,0.0,0.0,35,0.00,CLR,SKC,0.00,WeatherDisplay:10.37,2013-02-04 19:58:00,
2013-02-04 13:03:00,70.3,39.9,31.98,NW,315,13.8,13.8,33,0.00,CLR,SKC,0.00,WeatherDisplay:10.37,2013-02-04 20:03:00,
2013-02-04 13:08:00,70.0,39.5,31.98,NW,315,10.7,10.7,33,0.00,CLR,SKC,0.00,WeatherDisplay:10.37,2013-02-04 20:08:00,
2013-02-04 13:13:00,69.1,38.8,31.89,NNE,22,8.1,8.1,33,0.00,CLR,SKC,0.00,WeatherDisplay:10.37,2013-02-04 20:13:00,
2013-02-04 13:18:00,69.1,38.8,31.98,NNW,338,11.8,11.8,33,0.00,CLR,SKC,0.00,WeatherDisplay:10.37,2013-02-04 20:18:00,
2013-02-04 13:23:00,68.7,37.7,31.98,West,270,10.4,10.4,32,0.00,CLR,SKC,0.00,WeatherDisplay:10.37,2013-02-04 20:23:00,
2013-02-04 13:28:00,69.1,38.8,31.97,NW,315,8.1,8.1,33,0.00,CLR,SKC,0.00,WeatherDisplay:10.37,2013-02-04 20:28:00,
2013-02-04 13:33:00,69.8,39.4,31.97,NW,315,0.0,0.0,33,0.00,CLR,SKC,0.00,WeatherDisplay:10.37,2013-02-04 20:33:00,
2013-02-04 13:38:00,70.9,39.5,31.98,North,0,9.4,9.4,32,0.00,CLR,SKC,0.00,WeatherDisplay:10.37,2013-02-04 20:38:00,
2013-02-04 13:43:00,71.4,40.0,31.89,West,270,0.0,0.0,32,0.00,CLR,SKC,0.00,WeatherDisplay:10.37,2013-02-04 20:43:00,
2013-02-04 13:48:00,71.8,39.5,31.97,ENE,68,9.2,9.2,31,0.00,CLR,SKC,0.00,WeatherDisplay:10.37,2013-02-04 20:48:00,
2013-02-04 13:53:00,72.3,40.8,31.96,WSW,248,0.0,0.0,32,0.00,CLR,SKC,0.00,WeatherDisplay:10.37,2013-02-04 20:53:00,
2013-02-04 13:58:00,73.4,41.7,31.89,WSW,248,6.9,6.9,32,0.00,CLR,SKC,0.00,WeatherDisplay:10.37,2013-02-04 20:58:00,
2013-02-04 14:03:00,74.5,41.0,31.89,NW,315,11.5,11.5,30,0.00,CLR,SKC,0.00,WeatherDisplay:10.37,2013-02-04 21:03:00,
2013-02-04 14:08:00,74.7,40.3,31.96,NW,315,10.3,10.3,29,0.00,CLR,SKC,0.00,WeatherDisplay:10.37,2013-02-04 21:08:00,
2013-02-04 14:13:00,74.1,39.8,31.96,WNW,292,9.2,9.2,29,0.00,CLR,SKC,0.00,WeatherDisplay:10.37,2013-02-04 21:13:00,
2013-02-04 14:18:00,73.6,40.2,31.96,West,270,1.2,1.2,30,0.00,CLR,SKC,0.00,WeatherDisplay:10.37,2013-02-04 21:18:00,
2013-02-04 14:23:00,74.1,40.7,31.96,West,270,8.1,8.1,30,0.00,CLR,SKC,0.00,WeatherDisplay:10.37,2013-02-04 21:23:00,
2013-02-04 14:28:00,73.9,40.5,31.89,West,270,0.0,0.0,30,0.00,CLR,SKC,0.00,WeatherDisplay:10.37,2013-02-04 21:28:00,
2013-02-04 14:33:00,74.1,40.7,31.95,SSW,202,0.0,0.0,30,0.00,CLR,SKC,0.00,WeatherDisplay:10.37,2013-02-04 21:33:00,
2013-02-04 14:38:00,74.5,41.0,31.95,SSW,202,0.0,0.0,30,0.00,CLR,SKC,0.00,WeatherDisplay:10.37,2013-02-04 21:38:00,
2013-02-04 14:43:00,74.3,40.0,31.96,West,270,11.5,11.5,29,0.00,CLR,SKC,0.00,WeatherDisplay:10.37,2013-02-04 21:43:00,
2013-02-04 14:48:00,73.9,40.5,31.89,NNE,22,4.6,4.6,30,0.00,CLR,SKC,0.00,WeatherDisplay:10.37,2013-02-04 21:48:00,
2013-02-04 14:53:00,73.9,39.7,31.95,NNE,22,6.9,6.9,29,0.00,CLR,SKC,0.00,WeatherDisplay:10.37,2013-02-04 21:53:00,
2013-02-04 14:58:00,73.4,39.2,31.95,WNW,292,12.7,12.7,29,0.00,CLR,SKC,0.00,WeatherDisplay:10.37,2013-02-04 21:58:00,
2013-02-04 15:03:00,72.1,39.0,31.95,WNW,292,0.0,0.0,30,0.00,CLR,SKC,0.00,WeatherDisplay:10.37,2013-02-04 22:03:00,
2013-02-04 15:08:00,71.4,38.4,31.89,NNE,22,0.0,1.4,30,0.00,CLR,SKC,0.00,WeatherDisplay:10.37,2013-02-04 22:08:00,
2013-02-04 15:13:00,70.9,38.7,31.95,NE,45,0.0,0.0,31,0.00,CLR,SKC,0.00,WeatherDisplay:10.37,2013-02-04 22:13:00,
2013-02-04 15:18:00,71.6,39.3,31.95,NE,45,0.0,0.0,31,0.00,CLR,SKC,0.00,WeatherDisplay:10.37,2013-02-04 22:18:00,
2013-02-04 15:23:00,73.0,40.6,31.89,NE,45,0.0,0.0,31,0.00,CLR,SKC,0.00,WeatherDisplay:10.37,2013-02-04 22:23:00,
2013-02-04 15:28:00,74.3,40.8,31.95,East,90,6.9,0.0,30,0.00,CLR,SKC,0.00,WeatherDisplay:10.37,2013-02-04 22:28:00,
2013-02-04 15:33:00,75.0,40.6,31.95,South,180,0.0,0.0,29,0.00,CLR,SKC,0.00,WeatherDisplay:10.37,2013-02-04 22:33:00,
2013-02-04 15:38:00,75.7,41.2,31.94,SE,135,11.5,11.5,29,0.00,CLR,SKC,0.00,WeatherDisplay:10.37,2013-02-04 22:38:00,
2013-02-04 15:43:00,75.6,41.1,31.95,SSE,158,0.0,0.0,29,0.00,CLR,SKC,0.00,WeatherDisplay:10.37,2013-02-04 22:43:00,
2013-02-04 15:48:00,75.4,40.9,31.95,SSE,158,0.0,0.0,29,0.00,CLR,SKC,0.00,WeatherDisplay:10.37,2013-02-04 22:48:00,
2013-02-04 15:53:00,73.9,39.7,31.94,East,90,20.7,20.7,29,0.00,CLR,SKC,0.00,WeatherDisplay:10.37,2013-02-04 22:53:00,
2013-02-04 15:58:00,72.3,39.1,31.95,ESE,112,15.0,15.0,30,0.00,CLR,SKC,0.00,WeatherDisplay:10.37,2013-02-04 22:58:00,
2013-02-04 16:03:00,72.0,38.8,31.94,SSE,158,5.8,5.8,30,0.00,CLR,SKC,0.00,WeatherDisplay:10.37,2013-02-04 23:03:00,
2013-02-04 16:08:00,72.0,38.8,31.89,South,180,0.0,0.0,30,0.00,CLR,SKC,0.00,WeatherDisplay:10.37,2013-02-04 23:08:00,
2013-02-04 16:13:00,72.3,39.1,31.95,SSE,158,8.1,8.1,30,0.00,CLR,SKC,0.00,WeatherDisplay:10.37,2013-02-04 23:13:00,
2013-02-04 16:18:00,73.2,39.9,31.95,SSE,158,0.0,0.0,30,0.00,CLR,SKC,0.00,WeatherDisplay:10.37,2013-02-04 23:18:00,
2013-02-04 16:23:00,74.1,39.8,31.89,SSE,158,5.1,5.1,29,0.00,CLR,SKC,0.00,WeatherDisplay:10.37,2013-02-04 23:23:00,
2013-02-04 16:28:00,73.6,40.2,31.89,ESE,112,18.4,18.4,30,0.00,CLR,SKC,0.00,WeatherDisplay:10.37,2013-02-04 23:28:00,
2013-02-04 16:33:00,73.6,40.2,31.94,ESE,112,16.1,16.1,30,0.00,CLR,SKC,0.00,WeatherDisplay:10.37,2013-02-04 23:33:00,
2013-02-04 16:38:00,72.9,39.6,31.94,East,90,18.4,18.4,30,0.00,CLR,SKC,0.00,WeatherDisplay:10.37,2013-02-04 23:38:00,
2013-02-04 16:43:00,72.0,38.8,31.95,ESE,112,18.4,18.4,30,0.00,CLR,SKC,0.00,WeatherDisplay:10.37,2013-02-04 23:43:00,
2013-02-04 16:48:00,71.8,39.5,31.95,East,90,13.8,13.8,31,0.00,CLR,SKC,0.00,WeatherDisplay:10.37,2013-02-04 23:48:00,
2013-02-04 16:53:00,71.8,39.5,31.95,ESE,112,11.8,11.8,31,0.00,CLR,SKC,0.00,WeatherDisplay:10.37,2013-02-04 23:53:00,
2013-02-04 16:58:00,72.1,39.8,31.95,ESE,112,17.7,17.7,31,0.00,CLR,SKC,0.00,WeatherDisplay:10.37,2013-02-04 23:58:00,
2013-02-04 17:03:00,72.0,39.7,31.95,ESE,112,13.8,13.8,31,0.00,CLR,SKC,0.00,WeatherDisplay:10.37,2013-02-05 00:03:00,
2013-02-04 17:08:00,71.8,39.5,31.94,ESE,112,19.6,19.6,31,0.00,CLR,SKC,0.00,WeatherDisplay:10.37,2013-02-05 00:08:00,
2013-02-04 17:13:00,71.2,39.0,31.89,ESE,112,17.3,17.3,31,0.00,CLR,SKC,0.00,WeatherDisplay:10.37,2013-02-05 00:13:00,
2013-02-04 17:18:00,71.1,38.9,31.95,East,90,16.1,16.1,31,0.00,CLR,SKC,0.00,WeatherDisplay:10.37,2013-02-05 00:18:00,
2013-02-04 17:23:00,70.9,38.7,31.89,East,90,16.1,16.1,31,0.00,CLR,SKC,0.00,WeatherDisplay:10.37,2013-02-05 00:23:00,
2013-02-04 17:28:00,70.2,38.1,31.95,ESE,112,17.3,17.3,31,0.00,CLR,SKC,0.00,WeatherDisplay:10.37,2013-02-05 00:28:00,
2013-02-04 17:33:00,69.6,37.6,31.95,ESE,112,16.1,16.1,31,0.00,CLR,SKC,0.00,WeatherDisplay:10.37,2013-02-05 00:33:00,
2013-02-04 17:38:00,69.4,38.3,31.89,ESE,112,12.7,12.7,32,0.00,CLR,SKC,0.00,WeatherDisplay:10.37,2013-02-05 00:38:00,
2013-02-04 17:43:00,69.1,38.0,31.89,ESE,112,10.4,10.4,32,0.00,CLR,SKC,0.00,WeatherDisplay:10.37,2013-02-05 00:43:00,
2013-02-04 17:48:00,68.9,37.8,31.95,ESE,112,9.2,9.2,32,0.00,CLR,SKC,0.00,WeatherDisplay:10.37,2013-02-05 00:48:00,
2013-02-04 17:53:00,68.5,37.5,31.89,ESE,112,9.2,9.2,32,0.00,CLR,SKC,0.00,WeatherDisplay:10.37,2013-02-05 00:53:00,
2013-02-04 17:58:00,67.8,36.9,31.95,ESE,112,5.8,5.8,32,0.00,CLR,SKC,0.00,WeatherDisplay:10.37,2013-02-05 00:58:00,
2013-02-04 18:03:00,67.3,37.2,31.95,ESE,112,6.9,6.9,33,0.00,CLR,SKC,0.00,WeatherDisplay:10.37,2013-02-05 01:03:00,
2013-02-04 18:08:00,66.7,36.7,31.89,ESE,112,7.2,7.2,33,0.00,CLR,SKC,0.00,WeatherDisplay:10.37,2013-02-05 01:08:00,
2013-02-04 18:13:00,66.2,36.2,31.96,ESE,112,8.1,8.1,33,0.00,CLR,SKC,0.00,WeatherDisplay:10.37,2013-02-05 01:13:00,
2013-02-04 18:18:00,65.5,36.4,31.89,ESE,112,6.9,6.9,34,0.00,CLR,SKC,0.00,WeatherDisplay:10.37,2013-02-05 01:18:00,
2013-02-04 18:23:00,64.9,35.9,31.96,ESE,112,3.5,0.0,34,0.00,CLR,SKC,0.00,WeatherDisplay:10.37,2013-02-05 01:23:00,
2013-02-04 18:28:00,64.6,35.6,31.89,ESE,112,0.0,0.0,34,0.00,CLR,SKC,0.00,WeatherDisplay:10.37,2013-02-05 01:28:00,
2013-02-04 18:33:00,63.5,35.3,31.96,ENE,68,6.9,6.9,35,0.00,CLR,SKC,0.00,WeatherDisplay:10.37,2013-02-05 01:33:00,
2013-02-04 18:38:00,62.2,34.9,31.89,ENE,68,5.8,5.8,36,0.00,CLR,SKC,0.00,WeatherDisplay:10.37,2013-02-05 01:38:00,
2013-02-04 18:43:00,61.3,34.8,31.89,ENE,68,4.6,4.6,37,0.00,CLR,SKC,0.00,WeatherDisplay:10.37,2013-02-05 01:43:00,
2013-02-04 18:48:00,60.6,34.9,31.96,ENE,68,0.0,0.0,38,0.00,CLR,SKC,0.00,WeatherDisplay:10.37,2013-02-05 01:48:00,
2013-02-04 18:53:00,60.1,34.4,31.96,ENE,68,0.0,0.0,38,0.00,CLR,SKC,0.00,WeatherDisplay:10.37,2013-02-05 01:53:00,
2013-02-04 18:58:00,59.5,34.5,31.97,ENE,68,0.0,0.0,39,0.00,CLR,SKC,0.00,WeatherDisplay:10.37,2013-02-05 01:58:00,
2013-02-04 19:03:00,58.8,34.5,31.97,ENE,68,5.8,5.8,40,0.00,CLR,SKC,0.00,WeatherDisplay:10.37,2013-02-05 02:03:00,
2013-02-04 19:08:00,58.6,35.0,31.97,ENE,68,7.4,7.4,41,0.00,CLR,SKC,0.00,WeatherDisplay:10.37,2013-02-05 02:08:00,
2013-02-04 19:13:00,57.9,34.3,31.97,ENE,68,4.6,4.6,41,0.00,CLR,SKC,0.00,WeatherDisplay:10.37,2013-02-05 02:13:00,
2013-02-04 19:18:00,57.4,33.9,31.97,SSE,158,11.6,11.6,41,0.00,CLR,SKC,0.00,WeatherDisplay:10.37,2013-02-05 02:18:00,
2013-02-04 19:23:00,57.4,33.9,31.98,SE,135,2.3,0.0,41,0.00,CLR,SKC,0.00,WeatherDisplay:10.37,2013-02-05 02:23:00,
2013-02-04 19:28:00,57.4,33.9,31.98,SE,135,0.0,0.0,41,0.00,CLR,SKC,0.00,WeatherDisplay:10.37,2013-02-05 02:28:00,
2013-02-04 19:33:00,57.0,33.5,31.98,ESE,112,5.8,5.8,41,0.00,CLR,SKC,0.00,WeatherDisplay:10.37,2013-02-05 02:33:00,
2013-02-04 19:38:00,57.0,33.5,31.98,ESE,112,3.5,3.5,41,0.00,CLR,SKC,0.00,WeatherDisplay:10.37,2013-02-05 02:38:00,
2013-02-04 19:43:00,57.0,34.1,31.98,ESE,112,0.0,0.0,42,0.00,CLR,SKC,0.00,WeatherDisplay:10.37,2013-02-05 02:43:00,
2013-02-04 19:48:00,56.8,34.0,31.98,ESE,112,0.0,0.0,42,0.00,CLR,SKC,0.00,WeatherDisplay:10.37,2013-02-05 02:48:00,
2013-02-04 19:53:00,56.3,33.5,31.98,ESE,112,0.0,0.0,42,0.00,CLR,SKC,0.00,WeatherDisplay:10.37,2013-02-05 02:53:00,
2013-02-04 19:58:00,55.9,33.2,31.98,ESE,112,0.0,0.0,42,0.00,CLR,SKC,0.00,WeatherDisplay:10.37,2013-02-05 02:58:00,
2013-02-04 20:03:00,55.8,33.0,31.98,ESE,112,0.0,0.0,42,0.00,CLR,SKC,0.00,WeatherDisplay:10.37,2013-02-05 03:03:00,
2013-02-04 20:08:00,55.4,33.3,31.98,ESE,112,0.0,0.0,43,0.00,CLR,SKC,0.00,WeatherDisplay:10.37,2013-02-05 03:08:00,
2013-02-04 20:13:00,55.2,33.1,31.89,ESE,112,0.0,0.0,43,0.00,CLR,SKC,0.00,WeatherDisplay:10.37,2013-02-05 03:13:00,
2013-02-04 20:18:00,55.0,32.9,31.99,ESE,112,0.0,0.0,43,0.00,CLR,SKC,0.00,WeatherDisplay:10.37,2013-02-05 03:18:00,
2013-02-04 20:23:00,54.7,33.2,31.99,SE,135,0.0,0.0,44,0.00,CLR,SKC,0.00,WeatherDisplay:10.37,2013-02-05 03:23:00,
2013-02-04 20:28:00,54.5,33.0,31.99,SE,135,0.0,0.0,44,0.00,CLR,SKC,0.00,WeatherDisplay:10.37,2013-02-05 03:28:00,
2013-02-04 20:33:00,54.3,32.8,31.99,SE,135,3.5,0.0,44,0.00,CLR,SKC,0.00,WeatherDisplay:10.37,2013-02-05 03:33:00,
2013-02-04 20:38:00,54.1,32.7,32.00,SE,135,0.0,0.0,44,0.00,CLR,SKC,0.00,WeatherDisplay:10.37,2013-02-05 03:38:00,
2013-02-04 20:43:00,53.8,32.4,32.00,SE,135,0.0,0.0,44,0.00,CLR,SKC,0.00,WeatherDisplay:10.37,2013-02-05 03:43:00,
2013-02-04 20:48:00,53.4,32.6,32.00,SE,135,0.0,0.0,45,0.00,CLR,SKC,0.00,WeatherDisplay:10.37,2013-02-05 03:48:00,
2013-02-04 20:53:00,53.2,32.4,32.00,SE,135,0.0,0.0,45,0.00,CLR,SKC,0.00,WeatherDisplay:10.37,2013-02-05 03:53:00,
2013-02-04 20:58:00,53.1,32.3,32.00,SE,135,0.0,0.0,45,0.00,CLR,SKC,0.00,WeatherDisplay:10.37,2013-02-05 03:58:00,
2013-02-04 21:03:00,52.9,32.6,32.00,SE,135,0.0,0.0,46,0.00,CLR,SKC,0.00,WeatherDisplay:10.37,2013-02-05 04:03:00,
2013-02-04 21:08:00,52.9,32.6,32.00,SE,135,4.6,4.6,46,0.00,CLR,SKC,0.00,WeatherDisplay:10.37,2013-02-05 04:08:00,
2013-02-04 21:13:00,52.7,33.0,32.00,SE,135,3.5,3.5,47,0.00,CLR,SKC,0.00,WeatherDisplay:10.37,2013-02-05 04:13:00,
2013-02-04 21:18:00,52.9,33.7,32.00,ESE,112,3.5,3.5,48,0.00,CLR,SKC,0.00,WeatherDisplay:10.37,2013-02-05 04:18:00,
2013-02-04 21:23:00,52.9,33.2,32.01,ESE,112,0.0,0.0,47,0.00,CLR,SKC,0.00,WeatherDisplay:10.37,2013-02-05 04:23:00,
2013-02-04 21:28:00,52.5,32.9,31.89,ESE,112,0.0,0.0,47,0.00,CLR,SKC,0.00,WeatherDisplay:10.37,2013-02-05 04:28:00,
2013-02-04 21:33:00,52.3,33.2,31.89,ESE,112,8.1,8.1,48,0.00,CLR,SKC,0.00,WeatherDisplay:10.37,2013-02-05 04:33:00,
2013-02-04 21:38:00,52.2,33.0,32.01,SE,135,0.0,0.0,48,0.00,CLR,SKC,0.00,WeatherDisplay:10.37,2013-02-05 04:38:00,
2013-02-04 21:43:00,52.0,32.9,32.01,SE,135,0.0,0.0,48,0.00,CLR,SKC,0.00,WeatherDisplay:10.37,2013-02-05 04:43:00,
2013-02-04 21:48:00,51.6,32.6,32.01,SSE,158,0.0,0.0,48,0.00,CLR,SKC,0.00,WeatherDisplay:10.37,2013-02-05 04:48:00,
2013-02-04 21:53:00,51.6,32.6,32.01,SSE,158,0.0,0.0,48,0.00,CLR,SKC,0.00,WeatherDisplay:10.37,2013-02-05 04:53:00,
2013-02-04 21:58:00,51.6,33.1,32.01,ESE,112,0.0,0.4,49,0.00,CLR,SKC,0.00,WeatherDisplay:10.37,2013-02-05 04:58:00,
2013-02-04 22:00:00,51.6,33.1,31.89,ESE,112,2.3,0.0,49,0.00,CLR,SKC,0.00,WeatherDisplay:10.37,2013-02-05 05:00:00,
2013-02-04 22:05:00,51.6,33.6,32.01,ESE,112,5.8,5.8,50,0.00,CLR,SKC,0.00,WeatherDisplay:10.37,2013-02-05 05:05:00,
2013-02-04 22:10:00,51.8,33.2,31.89,ESE,112,0.0,0.0,49,0.00,CLR,SKC,0.00,WeatherDisplay:10.37,2013-02-05 05:10:00,
2013-02-04 22:15:00,51.6,33.1,32.01,ESE,112,0.0,0.0,49,0.00,CLR,SKC,0.00,WeatherDisplay:10.37,2013-02-05 05:15:00,
2013-02-04 22:20:00,51.6,33.1,32.01,ESE,112,0.0,0.0,49,0.00,CLR,SKC,0.00,WeatherDisplay:10.37,2013-02-05 05:20:00,
2013-02-04 22:25:00,51.1,32.1,32.01,ESE,112,0.0,0.0,48,0.00,CLR,SKC,0.00,WeatherDisplay:10.37,2013-02-05 05:25:00,
2013-02-04 22:30:00,50.5,32.1,31.89,ESE,112,0.0,0.0,49,0.00,CLR,SKC,0.00,WeatherDisplay:10.37,2013-02-05 05:30:00,
2013-02-04 22:35:00,50.7,33.2,32.01,East,90,0.0,0.0,51,0.00,CLR,SKC,0.00,WeatherDisplay:10.37,2013-02-05 05:35:00,
2013-02-04 22:40:00,50.7,32.7,32.01,East,90,0.0,0.0,50,0.00,CLR,SKC,0.00,WeatherDisplay:10.37,2013-02-05 05:40:00,
2013-02-04 22:45:00,50.5,32.6,32.01,East,90,0.0,0.0,50,0.00,CLR,SKC,0.00,WeatherDisplay:10.37,2013-02-05 05:45:00,
2013-02-04 22:50:00,50.4,32.9,31.89,East,90,0.0,0.0,51,0.00,CLR,SKC,0.00,WeatherDisplay:10.37,2013-02-05 05:50:00,
2013-02-04 22:55:00,50.4,32.9,32.02,East,90,0.0,0.0,51,0.00,CLR,SKC,0.00,WeatherDisplay:10.37,2013-02-05 05:55:00,
2013-02-04 23:00:00,50.4,33.4,32.02,SE,135,0.0,0.0,52,0.00,CLR,SKC,0.00,WeatherDisplay:10.37,2013-02-05 06:00:00,
2013-02-04 23:05:00,50.4,33.4,32.02,SSW,202,4.6,4.6,52,0.00,CLR,SKC,0.00,WeatherDisplay:10.37,2013-02-05 06:05:00,
2013-02-04 23:10:00,50.2,33.2,32.02,SW,225,7.4,7.4,52,0.00,CLR,SKC,0.00,WeatherDisplay:10.37,2013-02-05 06:10:00,
2013-02-04 23:15:00,49.8,32.9,32.02,SW,225,8.1,8.1,52,0.00,CLR,SKC,0.00,WeatherDisplay:10.37,2013-02-05 06:15:00,
2013-02-04 23:20:00,49.8,33.4,32.02,SW,225,6.9,6.9,53,0.00,CLR,SKC,0.00,WeatherDisplay:10.37,2013-02-05 06:20:00,
2013-02-04 23:25:00,49.8,33.4,32.02,SW,225,8.1,8.1,53,0.00,CLR,SKC,0.00,WeatherDisplay:10.37,2013-02-05 06:25:00,
2013-02-04 23:30:00,49.6,33.2,31.89,SW,225,1.2,1.2,53,0.00,CLR,SKC,0.00,WeatherDisplay:10.37,2013-02-05 06:30:00,
2013-02-04 23:35:00,49.5,32.6,32.02,NW,315,0.0,0.0,52,0.00,CLR,SKC,0.00,WeatherDisplay:10.37,2013-02-05 06:35:00,
2013-02-04 23:40:00,48.9,32.5,32.02,NW,315,0.0,0.0,53,0.00,CLR,SKC,0.00,WeatherDisplay:10.37,2013-02-05 06:40:00,
2013-02-04 23:45:00,48.6,32.2,32.02,NW,315,0.0,0.0,53,0.00,CLR,SKC,0.00,WeatherDisplay:10.37,2013-02-05 06:45:00,
2013-02-04 23:50:00,48.2,32.3,32.02,NW,315,0.0,0.0,54,0.00,CLR,SKC,0.00,WeatherDisplay:10.37,2013-02-05 06:50:00,
2013-02-04 23:55:00,48.0,32.2,32.02,North,0,6.9,6.9,54,0.00,CLR,SKC,0.00,WeatherDisplay:10.37,2013-02-05 06:55:00,